createdAt,value
2017-01-19T00:00:22.611Z,0.56
2017-01-19T00:01:22.962Z,0.53
2017-01-19T00:02:22.979Z,0.53
2017-01-19T00:03:22.938Z,0.57
2017-01-19T00:04:22.915Z,0.67
2017-01-19T00:05:22.450Z,0.61
2017-01-19T00:06:22.423Z,0.71
2017-01-19T00:07:22.389Z,0.79
2017-01-19T00:08:22.778Z,0.65
2017-01-19T00:09:22.362Z,0.61
2017-01-19T00:10:22.339Z,0.53
2017-01-19T00:11:22.747Z,0.42
2017-01-19T00:12:22.671Z,0.45
2017-01-19T00:13:22.635Z,0.45
2017-01-19T00:14:22.206Z,0.41
2017-01-19T00:15:22.172Z,0.6
2017-01-19T00:16:22.548Z,0.62
2017-01-19T00:17:22.116Z,0.7
2017-01-19T00:18:22.078Z,0.75
2017-01-19T00:19:22.060Z,0.74
2017-01-19T00:20:22.429Z,0.7
2017-01-19T00:21:21.999Z,0.68
2017-01-19T00:22:22.434Z,0.71
2017-01-19T00:23:22.349Z,0.62
2017-01-19T00:24:22.326Z,0.65
2017-01-19T00:25:21.877Z,0.67
2017-01-19T00:26:22.251Z,0.62
2017-01-19T00:27:22.225Z,0.7
2017-01-19T00:28:22.209Z,0.64
2017-01-19T00:29:22.168Z,0.7
2017-01-19T00:30:22.187Z,0.67
2017-01-19T00:31:21.318Z,0.65
2017-01-19T00:32:21.290Z,0.7
2017-01-19T00:33:22.098Z,0.72
2017-01-19T00:34:22.080Z,0.7
2017-01-19T00:35:21.999Z,0.65
2017-01-19T00:36:21.978Z,0.61
2017-01-19T00:37:21.533Z,0.57
2017-01-19T00:38:21.524Z,0.57
2017-01-19T00:39:21.880Z,0.62
2017-01-19T00:40:21.865Z,0.61
2017-01-19T00:41:21.508Z,0.67
2017-01-19T00:42:21.393Z,0.67
2017-01-19T00:43:20.978Z,0.71
2017-01-19T00:44:21.750Z,0.7
2017-01-19T00:45:21.722Z,0.71
2017-01-19T00:46:21.299Z,0.7
2017-01-19T00:47:21.673Z,0.7
2017-01-19T00:48:21.637Z,0.6
2017-01-19T00:49:20.809Z,0.52
2017-01-19T00:50:21.177Z,0.68
2017-01-19T00:51:21.554Z,0.67
2017-01-19T00:52:21.511Z,0.65
2017-01-19T00:53:21.490Z,0.71
2017-01-19T00:54:21.048Z,0.62
2017-01-19T00:55:21.466Z,0.64
2017-01-19T00:56:21.448Z,0.61
2017-01-19T00:57:21.371Z,0.65
2017-01-19T00:58:21.344Z,0.67
2017-01-19T00:59:20.976Z,0.7
2017-01-19T01:00:21.286Z,0.71
2017-01-19T01:01:20.918Z,0.74
2017-01-19T01:02:20.848Z,0.7
2017-01-19T01:03:21.212Z,0.72
2017-01-19T01:04:21.196Z,0.72
2017-01-19T01:05:20.747Z,0.7
2017-01-19T01:06:21.126Z,0.71
2017-01-19T01:07:21.103Z,0.72
2017-01-19T01:08:20.265Z,0.71
2017-01-19T01:09:21.044Z,0.7
2017-01-19T01:10:20.602Z,0.6
2017-01-19T01:11:20.983Z,0.67
2017-01-19T01:12:20.953Z,0.68
2017-01-19T01:13:21.005Z,0.68
2017-01-19T01:14:20.590Z,0.72
2017-01-19T01:15:20.498Z,0.7
2017-01-19T01:16:20.430Z,0.7
2017-01-19T01:17:20.827Z,0.67
2017-01-19T01:18:20.829Z,0.61
2017-01-19T01:19:20.358Z,0.7
2017-01-19T01:20:20.728Z,0.68
2017-01-19T01:21:20.296Z,0.65
2017-01-19T01:22:20.275Z,0.7
2017-01-19T01:23:20.235Z,0.68
2017-01-19T01:24:20.615Z,0.65
2017-01-19T01:25:20.169Z,0.65
2017-01-19T01:26:19.753Z,0.61
2017-01-19T01:27:20.139Z,0.52
2017-01-19T01:28:20.174Z,0.62
2017-01-19T01:29:20.568Z,0.57
2017-01-19T01:30:20.145Z,0.53
2017-01-19T01:31:20.409Z,0.64
2017-01-19T01:32:20.482Z,0.6
2017-01-19T01:33:20.408Z,0.67
2017-01-19T01:34:19.912Z,0.71
2017-01-19T01:35:19.888Z,0.57
2017-01-19T01:36:20.268Z,0.56
2017-01-19T01:37:20.249Z,0.53
2017-01-19T01:38:19.807Z,0.65
2017-01-19T01:39:19.776Z,0.71
2017-01-19T01:40:19.363Z,0.64
2017-01-19T01:41:19.725Z,0.7
2017-01-19T01:42:19.288Z,0.67
2017-01-19T01:43:19.258Z,0.53
2017-01-19T01:44:19.235Z,0.65
2017-01-19T01:45:20.000Z,0.67
2017-01-19T01:46:19.572Z,0.67
2017-01-19T01:47:19.963Z,0.62
2017-01-19T01:48:19.982Z,0.67
2017-01-19T01:49:19.903Z,0.61
2017-01-19T01:50:19.073Z,0.62
2017-01-19T01:51:19.444Z,0.6
2017-01-19T01:52:19.412Z,0.51
2017-01-19T01:53:19.786Z,0.52
2017-01-19T01:54:18.954Z,0.56
2017-01-19T01:55:19.751Z,0.52
2017-01-19T01:56:18.910Z,0.62
2017-01-19T01:57:19.670Z,0.64
2017-01-19T01:58:19.667Z,0.61
2017-01-19T01:59:19.220Z,0.61
2017-01-19T02:00:19.630Z,0.64
2017-01-19T02:01:19.154Z,0.65
2017-01-19T02:02:19.610Z,0.65
2017-01-19T02:03:18.702Z,0.62
2017-01-19T02:04:19.075Z,0.68
2017-01-19T02:05:19.441Z,0.61
2017-01-19T02:06:19.451Z,0.71
2017-01-19T02:07:19.441Z,0.71
2017-01-19T02:08:18.957Z,0.71
2017-01-19T02:09:18.941Z,0.68
2017-01-19T02:10:19.450Z,0.71
2017-01-19T02:11:18.886Z,0.62
2017-01-19T02:12:18.846Z,0.72
2017-01-19T02:13:19.251Z,0.62
2017-01-19T02:14:18.432Z,0.61
2017-01-19T02:15:19.171Z,0.52
2017-01-19T02:16:18.345Z,0.53
2017-01-19T02:17:18.704Z,0.42
2017-01-19T02:18:18.784Z,0.37
2017-01-19T02:19:18.246Z,0.41
2017-01-19T02:20:18.643Z,0.41
2017-01-19T02:21:18.997Z,0.51
2017-01-19T02:22:18.963Z,0.48
2017-01-19T02:23:18.953Z,0.45
2017-01-19T02:24:18.503Z,0.48
2017-01-19T02:25:18.479Z,0.46
2017-01-19T02:26:18.933Z,0.53
2017-01-19T02:27:18.826Z,0.42
2017-01-19T02:28:18.814Z,0.24
2017-01-19T02:29:17.963Z,0.13
2017-01-19T02:30:18.352Z,0.13
2017-01-19T02:31:18.712Z,0.19
2017-01-19T02:32:18.281Z,0.28
2017-01-19T02:33:18.660Z,0.19
2017-01-19T02:34:18.623Z,0.33
2017-01-19T02:35:18.219Z,0.27
2017-01-19T02:36:18.167Z,0.23
2017-01-19T02:37:18.216Z,0.35
2017-01-19T02:38:18.529Z,0.42
2017-01-19T02:39:18.099Z,0.34
2017-01-19T02:40:17.651Z,0.28
2017-01-19T02:41:18.435Z,0.41
2017-01-19T02:42:18.000Z,0.28
2017-01-19T02:43:18.082Z,0.17
2017-01-19T02:44:17.948Z,0.16
2017-01-19T02:45:18.323Z,0.31
2017-01-19T02:46:17.894Z,0.41
2017-01-19T02:47:17.455Z,0.43
2017-01-19T02:48:17.842Z,0.52
2017-01-19T02:49:17.801Z,0.53
2017-01-19T02:50:17.373Z,0.46
2017-01-19T02:51:17.756Z,0.57
2017-01-19T02:52:17.715Z,0.56
2017-01-19T02:53:17.695Z,0.53
2017-01-19T02:54:18.051Z,0.42
2017-01-19T02:55:18.048Z,0.34
2017-01-19T02:56:18.028Z,0.37
2017-01-19T02:57:17.579Z,0.25
2017-01-19T02:58:17.572Z,0.37
2017-01-19T02:59:17.933Z,0.39
2017-01-19T03:00:17.901Z,0.43
2017-01-19T03:01:17.469Z,0.42
2017-01-19T03:02:17.837Z,0.42
2017-01-19T03:03:17.417Z,0.34
2017-01-19T03:04:17.779Z,0.27
2017-01-19T03:05:17.360Z,0.34
2017-01-19T03:06:17.731Z,0.15
2017-01-19T03:07:17.311Z,0.27
2017-01-19T03:08:17.264Z,0.19
2017-01-19T03:09:17.249Z,0.03
2017-01-19T03:10:17.610Z,-0.02
2017-01-19T03:11:17.219Z,0.06
2017-01-19T03:12:17.149Z,0.12
2017-01-19T03:13:17.146Z,0.03
2017-01-19T03:14:16.690Z,-0.12
2017-01-19T03:15:17.479Z,-0.19
2017-01-19T03:16:17.444Z,-0.19
2017-01-19T03:17:17.013Z,-0.06
2017-01-19T03:18:16.998Z,-0.03
2017-01-19T03:19:16.958Z,-0.23
2017-01-19T03:20:16.523Z,-0.21
2017-01-19T03:21:16.907Z,-0.26
2017-01-19T03:22:17.272Z,-0.23
2017-01-19T03:23:16.831Z,-0.26
2017-01-19T03:24:17.213Z,-0.16
2017-01-19T03:25:16.780Z,-0.21
2017-01-19T03:26:17.160Z,-0.44
2017-01-19T03:27:17.128Z,-0.41
2017-01-19T03:28:17.094Z,-0.23
2017-01-19T03:29:16.657Z,-0.08
2017-01-19T03:30:17.050Z,-0.03
2017-01-19T03:31:17.002Z,-0.23
2017-01-19T03:32:16.978Z,-0.21
2017-01-19T03:33:16.567Z,-0.12
2017-01-19T03:34:16.999Z,-0.21
2017-01-19T03:35:16.510Z,-0.19
2017-01-19T03:36:16.468Z,-0.12
2017-01-19T03:37:16.429Z,-0.01
2017-01-19T03:38:16.398Z,0.09
2017-01-19T03:39:16.388Z,0.15
2017-01-19T03:40:16.337Z,0.23
2017-01-19T03:41:16.727Z,0.23
2017-01-19T03:42:16.284Z,0.19
2017-01-19T03:43:16.255Z,0.12
2017-01-19T03:44:16.636Z,0.12
2017-01-19T03:45:16.190Z,0.27
2017-01-19T03:46:16.625Z,0.33
2017-01-19T03:47:16.539Z,0.43
2017-01-19T03:48:16.521Z,0.43
2017-01-19T03:49:16.113Z,0.45
2017-01-19T03:50:16.112Z,0.45
2017-01-19T03:51:16.428Z,0.42
2017-01-19T03:52:15.995Z,0.35
2017-01-19T03:53:15.975Z,0.43
2017-01-19T03:54:16.347Z,0.21
2017-01-19T03:55:15.917Z,0.1
2017-01-19T03:56:16.340Z,0.1
2017-01-19T03:57:16.263Z,0.07
2017-01-19T03:58:15.830Z,0.13
2017-01-19T03:59:16.204Z,0.19
2017-01-19T04:00:16.299Z,0.25
2017-01-19T04:01:16.150Z,0.34
2017-01-19T04:02:15.756Z,0.45
2017-01-19T04:03:15.282Z,0.33
2017-01-19T04:04:15.665Z,0.51
2017-01-19T04:05:15.635Z,0.43
2017-01-19T04:06:15.595Z,0.35
2017-01-19T04:07:15.598Z,0.33
2017-01-19T04:08:15.574Z,0.34
2017-01-19T04:09:15.518Z,0.23
2017-01-19T04:10:15.884Z,0.34
2017-01-19T04:11:15.456Z,0.31
2017-01-19T04:12:15.433Z,0.39
2017-01-19T04:13:15.407Z,0.42
2017-01-19T04:14:15.772Z,0.45
2017-01-19T04:15:15.335Z,0.43
2017-01-19T04:16:15.338Z,0.43
2017-01-19T04:17:15.293Z,0.45
2017-01-19T04:18:15.260Z,0.28
2017-01-19T04:19:15.629Z,0.24
2017-01-19T04:20:15.199Z,0.28
2017-01-19T04:21:15.188Z,0.28
2017-01-19T04:22:14.759Z,0.27
2017-01-19T04:23:15.121Z,0.31
2017-01-19T04:24:15.508Z,0.23
2017-01-19T04:25:15.516Z,0.28
2017-01-19T04:26:15.013Z,0.19
2017-01-19T04:27:15.056Z,0.41
2017-01-19T04:28:14.573Z,0.43
2017-01-19T04:29:14.951Z,0.49
2017-01-19T04:30:14.508Z,0.34
2017-01-19T04:31:15.303Z,0.16
2017-01-19T04:32:15.266Z,0.19
2017-01-19T04:33:14.864Z,0.09
2017-01-19T04:34:14.814Z,0.07
2017-01-19T04:35:14.777Z,0.05
2017-01-19T04:36:15.148Z,0.03
2017-01-19T04:37:14.321Z,0.05
2017-01-19T04:38:14.697Z,0.12
2017-01-19T04:39:14.655Z,0.06
2017-01-19T04:40:14.630Z,0.15
2017-01-19T04:41:14.604Z,0.23
2017-01-19T04:42:15.004Z,0.16
2017-01-19T04:43:15.000Z,0.3
2017-01-19T04:44:14.554Z,0.34
2017-01-19T04:45:14.488Z,0.35
2017-01-19T04:46:14.916Z,0.24
2017-01-19T04:47:14.837Z,-0.09
2017-01-19T04:48:14.847Z,-0.02
2017-01-19T04:49:14.779Z,0.03
2017-01-19T04:50:14.345Z,0.12
2017-01-19T04:51:14.721Z,0.17
2017-01-19T04:52:14.285Z,0.25
2017-01-19T04:53:14.257Z,0.24
2017-01-19T04:54:14.640Z,0.34
2017-01-19T04:55:14.613Z,0.15
2017-01-19T04:56:14.210Z,0.3
2017-01-19T04:57:14.139Z,0.34
2017-01-19T04:58:14.121Z,0.24
2017-01-19T04:59:14.081Z,0.25
2017-01-19T05:00:14.059Z,0.24
2017-01-19T05:01:14.439Z,0.21
2017-01-19T05:02:13.998Z,0.06
2017-01-19T05:03:13.579Z,0.13
2017-01-19T05:04:14.345Z,0.17
2017-01-19T05:05:13.906Z,0.24
2017-01-19T05:06:13.887Z,0.13
2017-01-19T05:07:13.856Z,0.12
2017-01-19T05:08:13.828Z,0.06
2017-01-19T05:09:14.201Z,-0.02
2017-01-19T05:10:13.771Z,-0.13
2017-01-19T05:11:13.741Z,-0.31
2017-01-19T05:12:13.709Z,-0.36
2017-01-19T05:13:14.088Z,-0.45
2017-01-19T05:14:14.057Z,-0.39
2017-01-19T05:15:13.613Z,-0.33
2017-01-19T05:16:13.236Z,-0.38
2017-01-19T05:17:13.979Z,-0.47
2017-01-19T05:18:13.531Z,-0.44
2017-01-19T05:19:13.101Z,-0.45
2017-01-19T05:20:13.578Z,-0.29
2017-01-19T05:21:13.852Z,-0.48
2017-01-19T05:22:13.970Z,-0.57
2017-01-19T05:23:12.990Z,-0.47
2017-01-19T05:24:13.398Z,-0.42
2017-01-19T05:25:13.742Z,-0.47
2017-01-19T05:26:13.325Z,-0.41
2017-01-19T05:27:13.268Z,-0.47
2017-01-19T05:28:13.246Z,-0.47
2017-01-19T05:29:13.605Z,-0.45
2017-01-19T05:30:13.264Z,-0.47
2017-01-19T05:31:13.208Z,-0.29
2017-01-19T05:32:12.733Z,-0.34
2017-01-19T05:33:13.093Z,-0.26
2017-01-19T05:34:13.077Z,-0.39
2017-01-19T05:35:13.451Z,-0.34
2017-01-19T05:36:13.420Z,-0.27
2017-01-19T05:37:12.584Z,-0.23
2017-01-19T05:38:12.944Z,-0.23
2017-01-19T05:39:13.328Z,-0.11
2017-01-19T05:40:12.975Z,-0.12
2017-01-19T05:41:12.865Z,-0.23
2017-01-19T05:42:12.426Z,-0.03
2017-01-19T05:43:12.808Z,-0.05
2017-01-19T05:44:13.169Z,-0.11
2017-01-19T05:45:13.233Z,-0.01
2017-01-19T05:46:12.721Z,-0.06
2017-01-19T05:47:13.108Z,-0.08
2017-01-19T05:48:13.085Z,-0.01
2017-01-19T05:49:12.615Z,-0.06
2017-01-19T05:50:13.013Z,-0.08
2017-01-19T05:51:12.575Z,-0.06
2017-01-19T05:52:12.948Z,-0.02
2017-01-19T05:53:12.932Z,-0.01
2017-01-19T05:54:12.491Z,-0.02
2017-01-19T05:55:12.859Z,0.02
2017-01-19T05:56:12.432Z,0.05
2017-01-19T05:57:12.531Z,-0.01
2017-01-19T05:58:12.777Z,-0.02
2017-01-19T05:59:12.331Z,-0.01
2017-01-19T06:00:12.717Z,0.03
2017-01-19T06:01:12.686Z,-0.24
2017-01-19T06:02:12.253Z,-0.19
2017-01-19T06:03:12.226Z,-0.2
2017-01-19T06:04:12.188Z,-0.08
2017-01-19T06:05:11.754Z,-0.09
2017-01-19T06:06:11.726Z,-0.02
2017-01-19T06:07:12.103Z,0.09
2017-01-19T06:08:12.078Z,0.03
2017-01-19T06:09:12.054Z,0.1
2017-01-19T06:10:12.032Z,0.05
2017-01-19T06:11:11.990Z,0.1
2017-01-19T06:12:11.560Z,0.16
2017-01-19T06:13:11.936Z,0.09
2017-01-19T06:14:12.306Z,0.1
2017-01-19T06:15:11.469Z,0.19
2017-01-19T06:16:11.853Z,0.13
2017-01-19T06:17:11.809Z,0.17
2017-01-19T06:18:12.190Z,0.19
2017-01-19T06:19:12.161Z,0.17
2017-01-19T06:20:12.128Z,0.21
2017-01-19T06:21:11.709Z,0.12
2017-01-19T06:22:11.674Z,0.09
2017-01-19T06:23:12.046Z,0.15
2017-01-19T06:24:11.610Z,0.07
2017-01-19T06:25:11.995Z,0.05
2017-01-19T06:26:11.156Z,0.06
2017-01-19T06:27:11.534Z,0.07
2017-01-19T06:28:11.521Z,-0.06
2017-01-19T06:29:11.869Z,0.1
2017-01-19T06:30:11.851Z,0.06
2017-01-19T06:31:11.472Z,0.13
2017-01-19T06:32:11.798Z,0.21
2017-01-19T06:33:11.759Z,0.15
2017-01-19T06:34:11.729Z,0.15
2017-01-19T06:35:10.943Z,0.15
2017-01-19T06:36:11.678Z,0.15
2017-01-19T06:37:11.282Z,0.21
2017-01-19T06:38:11.616Z,0.15
2017-01-19T06:39:11.585Z,0.16
2017-01-19T06:40:11.549Z,0.16
2017-01-19T06:41:11.526Z,0.13
2017-01-19T06:42:11.505Z,0.15
2017-01-19T06:43:10.673Z,0.15
2017-01-19T06:44:11.448Z,0.21
2017-01-19T06:45:11.424Z,0.19
2017-01-19T06:46:11.392Z,0.19
2017-01-19T06:47:11.361Z,0.25
2017-01-19T06:48:11.331Z,0.15
2017-01-19T06:49:10.890Z,0.19
2017-01-19T06:50:11.270Z,0.16
2017-01-19T06:51:10.841Z,0.23
2017-01-19T06:52:10.815Z,0.27
2017-01-19T06:53:11.183Z,0.19
2017-01-19T06:54:10.347Z,0.12
2017-01-19T06:55:10.727Z,0.16
2017-01-19T06:56:10.691Z,0.15
2017-01-19T06:57:10.663Z,0.15
2017-01-19T06:58:10.646Z,0.3
2017-01-19T06:59:11.074Z,0.34
2017-01-19T07:00:10.186Z,0.35
2017-01-19T07:01:10.554Z,0.23
2017-01-19T07:02:10.926Z,0.35
2017-01-19T07:03:10.483Z,0.28
2017-01-19T07:04:10.491Z,0.28
2017-01-19T07:05:10.458Z,0.28
2017-01-19T07:06:10.397Z,0.37
2017-01-19T07:07:10.376Z,0.23
2017-01-19T07:08:09.934Z,0.24
2017-01-19T07:09:10.317Z,0.23
2017-01-19T07:10:10.283Z,0.16
2017-01-19T07:11:10.274Z,0.24
2017-01-19T07:12:10.235Z,0.17
2017-01-19T07:13:10.617Z,0.35
2017-01-19T07:14:10.592Z,0.16
2017-01-19T07:15:10.556Z,0.19
2017-01-19T07:16:10.526Z,0.35
2017-01-19T07:17:10.091Z,0.17
2017-01-19T07:18:10.065Z,0.25
2017-01-19T07:19:10.017Z,0.15
2017-01-19T07:20:10.003Z,0.3
2017-01-19T07:21:10.002Z,0.24
2017-01-19T07:22:09.955Z,0.17
2017-01-19T07:23:09.967Z,0.25
2017-01-19T07:24:10.289Z,0.1
2017-01-19T07:25:09.512Z,0.16
2017-01-19T07:26:09.833Z,0.19
2017-01-19T07:27:09.797Z,0.21
2017-01-19T07:28:09.796Z,0.21
2017-01-19T07:29:09.937Z,0.13
2017-01-19T07:30:10.093Z,0.27
2017-01-19T07:31:10.063Z,0.24
2017-01-19T07:32:10.046Z,0.17
2017-01-19T07:33:09.211Z,0.21
2017-01-19T07:34:09.983Z,0.25
2017-01-19T07:35:09.549Z,0.25
2017-01-19T07:36:09.538Z,0.15
2017-01-19T07:37:09.493Z,0.16
2017-01-19T07:38:09.155Z,0.3
2017-01-19T07:39:09.042Z,0.15
2017-01-19T07:40:09.413Z,0.25
2017-01-19T07:41:09.381Z,0.35
2017-01-19T07:42:09.353Z,0.46
2017-01-19T07:43:09.725Z,0.48
2017-01-19T07:44:08.919Z,0.46
2017-01-19T07:45:09.665Z,0.49
2017-01-19T07:46:08.834Z,0.41
2017-01-19T07:47:09.208Z,0.43
2017-01-19T07:48:09.186Z,0.46
2017-01-19T07:49:08.792Z,0.52
2017-01-19T07:50:09.118Z,0.57
2017-01-19T07:51:08.705Z,0.53
2017-01-19T07:52:09.057Z,0.49
2017-01-19T07:53:09.045Z,0.48
2017-01-19T07:54:09.486Z,0.41
2017-01-19T07:55:09.071Z,0.48
2017-01-19T07:56:09.353Z,0.24
2017-01-19T07:57:09.409Z,0.28
2017-01-19T07:58:09.012Z,0.33
2017-01-19T07:59:08.900Z,0.19
2017-01-19T08:00:09.239Z,0.28
2017-01-19T08:01:09.212Z,0.31
2017-01-19T08:02:08.785Z,0.16
2017-01-19T08:03:09.153Z,0.17
2017-01-19T08:04:08.729Z,0.23
2017-01-19T08:05:08.289Z,0.27
2017-01-19T08:06:08.663Z,0.39
2017-01-19T08:07:08.635Z,0.31
2017-01-19T08:08:09.010Z,0.37
2017-01-19T08:09:08.583Z,0.39
2017-01-19T08:10:08.992Z,0.42
2017-01-19T08:11:09.049Z,0.48
2017-01-19T08:12:09.002Z,0.51
2017-01-19T08:13:08.069Z,0.67
2017-01-19T08:14:08.841Z,0.64
2017-01-19T08:15:08.406Z,0.74
2017-01-19T08:16:07.980Z,0.79
2017-01-19T08:17:08.749Z,0.96
2017-01-19T08:18:08.830Z,1
2017-01-19T08:19:08.297Z,1.17
2017-01-19T08:20:07.877Z,1.24
2017-01-19T08:21:08.637Z,1.17
2017-01-19T08:22:08.611Z,1.24
2017-01-19T08:23:08.176Z,1.1
2017-01-19T08:24:08.550Z,0.97
2017-01-19T08:25:07.722Z,1.22
2017-01-19T08:26:08.096Z,1.17
2017-01-19T08:27:08.571Z,1.4
2017-01-19T08:28:08.045Z,1.26
2017-01-19T08:29:08.407Z,1.61
2017-01-19T08:30:08.395Z,1.78
2017-01-19T08:31:08.359Z,2.13
2017-01-19T08:32:07.532Z,2.17
2017-01-19T08:33:08.317Z,2.1
2017-01-19T08:34:07.875Z,2.12
2017-01-19T08:35:07.853Z,2.04
2017-01-19T08:36:07.429Z,2.16
2017-01-19T08:37:08.197Z,1.97
2017-01-19T08:38:08.177Z,1.78
2017-01-19T08:39:07.786Z,1.53
2017-01-19T08:40:08.113Z,1.72
2017-01-19T08:41:07.694Z,2.13
2017-01-19T08:42:08.065Z,2.33
2017-01-19T08:43:07.625Z,2.52
2017-01-19T08:44:08.018Z,2.43
2017-01-19T08:45:07.182Z,2.62
2017-01-19T08:46:07.608Z,2.99
2017-01-19T08:47:07.532Z,3.33
2017-01-19T08:48:07.505Z,3.25
2017-01-19T08:49:07.889Z,3.42
2017-01-19T08:50:07.453Z,3.74
2017-01-19T08:51:07.435Z,4.16
2017-01-19T08:52:07.483Z,4.57
2017-01-19T08:53:07.373Z,4.99
2017-01-19T08:54:07.753Z,5.42
2017-01-19T08:55:07.736Z,5.59
2017-01-19T08:56:07.712Z,6.11
2017-01-19T08:57:07.278Z,6.69
2017-01-19T08:58:06.854Z,7.2
2017-01-19T08:59:07.651Z,7.48
2017-01-19T09:00:07.705Z,7.81
2017-01-19T09:01:07.600Z,7.48
2017-01-19T09:02:06.854Z,7.68
2017-01-19T09:03:07.153Z,7.85
2017-01-19T09:04:07.205Z,8.09
2017-01-19T09:05:06.715Z,8.27
2017-01-19T09:06:07.105Z,8.5
2017-01-19T09:07:07.082Z,8.72
2017-01-19T09:08:07.066Z,8.7
2017-01-19T09:09:07.154Z,8.32
2017-01-19T09:10:07.425Z,7.76
2017-01-19T09:11:07.411Z,7.42
2017-01-19T09:12:07.395Z,7.11
2017-01-19T09:13:06.979Z,7.53
2017-01-19T09:14:07.043Z,7.31
2017-01-19T09:15:06.928Z,7.05
2017-01-19T09:16:06.910Z,6.7
2017-01-19T09:17:06.893Z,6.45
2017-01-19T09:18:06.872Z,6.35
2017-01-19T09:19:06.876Z,6.25
2017-01-19T09:20:07.248Z,6.07
2017-01-19T09:21:06.812Z,5.96
2017-01-19T09:22:07.222Z,6.07
2017-01-19T09:23:06.788Z,6.22
2017-01-19T09:24:07.158Z,6.81
2017-01-19T09:25:06.737Z,7.37
2017-01-19T09:26:07.116Z,7.88
2017-01-19T09:27:06.705Z,8.09
2017-01-19T09:28:06.680Z,8.21
2017-01-19T09:29:06.666Z,8.24
2017-01-19T09:30:06.639Z,8.47
2017-01-19T09:31:07.050Z,8.77
2017-01-19T09:32:06.615Z,8.88
2017-01-19T09:33:06.196Z,7.21
2017-01-19T09:34:06.979Z,7.45
2017-01-19T09:35:06.557Z,7.67
2017-01-19T09:36:06.531Z,6.93
2017-01-19T09:37:06.519Z,7.73
2017-01-19T09:38:06.894Z,8.11
2017-01-19T09:39:06.911Z,8.61
2017-01-19T09:40:06.093Z,8.57
2017-01-19T09:41:06.441Z,9.02
2017-01-19T09:42:06.824Z,9.28
2017-01-19T09:43:06.422Z,9.27
2017-01-19T09:44:06.393Z,9.28
2017-01-19T09:45:06.391Z,9.13
2017-01-19T09:46:06.761Z,9.03
2017-01-19T09:47:05.951Z,8.76
2017-01-19T09:48:06.330Z,8.36
2017-01-19T09:49:06.728Z,8.19
2017-01-19T09:50:05.907Z,7.78
2017-01-19T09:51:06.682Z,7.72
2017-01-19T09:52:06.676Z,7.76
2017-01-19T09:53:06.650Z,7.56
2017-01-19T09:54:06.644Z,7.42
2017-01-19T09:55:06.223Z,7.26
2017-01-19T09:56:06.616Z,7.17
2017-01-19T09:57:06.602Z,7.02
2017-01-19T09:58:06.575Z,6.99
2017-01-19T09:59:06.163Z,6.84
2017-01-19T10:00:05.731Z,6.8
2017-01-19T10:01:06.519Z,6.87
2017-01-19T10:02:06.101Z,6.73
2017-01-19T10:03:06.080Z,6.62
2017-01-19T10:04:05.659Z,6.17
2017-01-19T10:05:06.450Z,6.07
2017-01-19T10:06:06.021Z,5.98
2017-01-19T10:07:06.007Z,5.7
2017-01-19T10:08:05.983Z,5.7
2017-01-19T10:09:05.969Z,5.86
2017-01-19T10:10:06.349Z,5.63
2017-01-19T10:11:06.328Z,5.09
2017-01-19T10:12:05.934Z,4.47
2017-01-19T10:13:06.295Z,4.5
2017-01-19T10:14:05.857Z,4.91
2017-01-19T10:15:06.263Z,4.98
2017-01-19T10:16:05.853Z,5.14
2017-01-19T10:17:05.805Z,5.24
2017-01-19T10:18:06.206Z,5.47
2017-01-19T10:19:06.162Z,5.68
2017-01-19T10:20:05.758Z,5.67
2017-01-19T10:21:05.732Z,5.6
2017-01-19T10:22:05.729Z,4.95
2017-01-19T10:23:06.081Z,4.79
2017-01-19T10:24:05.689Z,4.96
2017-01-19T10:25:05.635Z,4.64
2017-01-19T10:26:05.667Z,4.13
2017-01-19T10:27:06.004Z,4.44
2017-01-19T10:28:06.095Z,4.64
2017-01-19T10:29:05.191Z,4.75
2017-01-19T10:30:05.957Z,4.65
2017-01-19T10:31:05.914Z,4.76
2017-01-19T10:32:05.501Z,4.67
2017-01-19T10:33:05.464Z,4.32
2017-01-19T10:34:05.896Z,4.03
2017-01-19T10:35:05.418Z,4.22
2017-01-19T10:36:05.832Z,4.57
2017-01-19T10:37:04.972Z,5.06
2017-01-19T10:38:05.771Z,5.23
2017-01-19T10:39:05.851Z,5.13
2017-01-19T10:40:05.718Z,5.31
2017-01-19T10:41:05.292Z,5.57
2017-01-19T10:42:04.862Z,5.7
2017-01-19T10:43:05.246Z,5.31
2017-01-19T10:44:05.689Z,5.49
2017-01-19T10:45:05.601Z,5.74
2017-01-19T10:46:05.587Z,5.77
2017-01-19T10:47:05.656Z,5.9
2017-01-19T10:48:05.217Z,6.04
2017-01-19T10:49:05.563Z,6.18
2017-01-19T10:50:05.174Z,6.3
2017-01-19T10:51:04.675Z,6.6
2017-01-19T10:52:04.650Z,7.08
2017-01-19T10:53:05.037Z,7.44
2017-01-19T10:54:04.653Z,8.14
2017-01-19T10:55:04.988Z,8.27
2017-01-19T10:56:04.572Z,8.07
2017-01-19T10:57:05.399Z,7.7
2017-01-19T10:58:05.334Z,6.72
2017-01-19T10:59:05.320Z,6.72
2017-01-19T11:00:04.885Z,6.27
2017-01-19T11:01:04.860Z,6.41
2017-01-19T11:02:05.269Z,6.65
2017-01-19T11:03:05.233Z,6.69
2017-01-19T11:04:05.202Z,6.7
2017-01-19T11:05:04.370Z,6.3
2017-01-19T11:06:04.745Z,6.37
2017-01-19T11:07:05.302Z,6.47
2017-01-19T11:08:04.324Z,6.44
2017-01-19T11:09:05.138Z,6.66
2017-01-19T11:10:04.686Z,6.66
2017-01-19T11:11:04.249Z,7.19
2017-01-19T11:12:05.037Z,7.42
2017-01-19T11:13:04.203Z,7.55
2017-01-19T11:14:04.594Z,7.55
2017-01-19T11:15:04.627Z,7.78
2017-01-19T11:16:04.943Z,7.96
2017-01-19T11:17:05.033Z,8.34
2017-01-19T11:18:04.911Z,8.93
2017-01-19T11:19:04.534Z,9
2017-01-19T11:20:04.873Z,9.35
2017-01-19T11:21:04.460Z,9.83
2017-01-19T11:22:04.835Z,9.89
2017-01-19T11:23:04.031Z,10.08
2017-01-19T11:24:04.848Z,10.52
2017-01-19T11:25:04.371Z,10.36
2017-01-19T11:26:04.367Z,10.33
2017-01-19T11:27:04.727Z,10.29
2017-01-19T11:28:04.775Z,9.9
2017-01-19T11:29:04.310Z,10.4
2017-01-19T11:30:04.682Z,10.67
2017-01-19T11:31:04.659Z,10.55
2017-01-19T11:32:03.847Z,10.53
2017-01-19T11:33:03.817Z,10.37
2017-01-19T11:34:04.208Z,10.19
2017-01-19T11:35:04.217Z,10.03
2017-01-19T11:36:04.174Z,9.72
2017-01-19T11:37:04.560Z,9.34
2017-01-19T11:38:04.136Z,9.19
2017-01-19T11:39:04.125Z,8.87
2017-01-19T11:40:04.100Z,8.66
2017-01-19T11:41:04.478Z,8.15
2017-01-19T11:42:04.071Z,7.72
2017-01-19T11:43:04.455Z,7.41
2017-01-19T11:44:04.019Z,7.29
2017-01-19T11:45:04.037Z,7.2
2017-01-19T11:46:04.002Z,7.04
2017-01-19T11:47:03.967Z,7.04
2017-01-19T11:48:03.938Z,6.8
2017-01-19T11:49:03.925Z,6.66
2017-01-19T11:50:03.906Z,6.4
2017-01-19T11:51:04.289Z,6.29
2017-01-19T11:52:03.873Z,6.25
2017-01-19T11:53:04.244Z,7.05
2017-01-19T11:54:03.835Z,7.79
2017-01-19T11:55:03.810Z,8.51
2017-01-19T11:56:04.187Z,9.29
2017-01-19T11:57:03.763Z,9.75
2017-01-19T11:58:03.762Z,10.21
2017-01-19T11:59:04.126Z,10.53
2017-01-19T12:00:04.102Z,10.63
2017-01-19T12:01:03.686Z,10.69
2017-01-19T12:02:04.066Z,10.89
2017-01-19T12:03:03.660Z,11.13
2017-01-19T12:04:04.040Z,11.35
2017-01-19T12:05:03.618Z,11.5
2017-01-19T12:06:03.585Z,11.17
2017-01-19T12:07:03.571Z,11.5
2017-01-19T12:08:03.569Z,11.58
2017-01-19T12:09:03.531Z,11.43
2017-01-19T12:10:03.569Z,11.03
2017-01-19T12:11:03.912Z,10.82
2017-01-19T12:12:03.982Z,11.05
2017-01-19T12:13:03.461Z,11.21
2017-01-19T12:14:03.453Z,11.32
2017-01-19T12:15:03.882Z,11.13
2017-01-19T12:16:03.818Z,11.06
2017-01-19T12:17:03.844Z,11.33
2017-01-19T12:18:03.777Z,11.39
2017-01-19T12:19:03.361Z,11.57
2017-01-19T12:20:03.832Z,11.71
2017-01-19T12:21:03.376Z,11.72
2017-01-19T12:22:03.829Z,11.81
2017-01-19T12:23:03.726Z,11.97
2017-01-19T12:24:03.698Z,11.89
2017-01-19T12:25:03.309Z,11.95
2017-01-19T12:26:03.736Z,11.84
2017-01-19T12:27:03.314Z,11.81
2017-01-19T12:28:03.212Z,11.97
2017-01-19T12:29:03.296Z,11.94
2017-01-19T12:30:03.679Z,12.05
2017-01-19T12:31:03.151Z,12.13
2017-01-19T12:32:03.201Z,12.21
2017-01-19T12:33:03.536Z,12.21
2017-01-19T12:34:03.514Z,12.05
2017-01-19T12:35:03.493Z,12.06
2017-01-19T12:36:03.125Z,11.42
2017-01-19T12:37:03.496Z,11.23
2017-01-19T12:38:03.035Z,11.24
2017-01-19T12:39:03.428Z,11.46
2017-01-19T12:40:03.439Z,11.42
2017-01-19T12:41:03.018Z,11.84
2017-01-19T12:42:03.375Z,11.83
2017-01-19T12:43:03.344Z,11.71
2017-01-19T12:44:03.330Z,11.76
2017-01-19T12:45:02.511Z,11.75
2017-01-19T12:46:02.896Z,11.66
2017-01-19T12:47:03.337Z,11.9
2017-01-19T12:48:02.858Z,11.94
2017-01-19T12:49:03.273Z,11.79
2017-01-19T12:50:03.234Z,11.89
2017-01-19T12:51:03.219Z,11.99
2017-01-19T12:52:03.219Z,11.91
2017-01-19T12:53:02.401Z,11.71
2017-01-19T12:54:03.187Z,11.46
2017-01-19T12:55:03.236Z,11.18
2017-01-19T12:56:03.141Z,10.98
2017-01-19T12:57:03.125Z,10.48
2017-01-19T12:58:03.127Z,10.53
2017-01-19T12:59:02.718Z,10.55
2017-01-19T13:00:02.684Z,10.52
2017-01-19T13:01:02.660Z,10.56
2017-01-19T13:02:02.654Z,10.56
2017-01-19T13:03:03.046Z,10.46
2017-01-19T13:04:03.011Z,10.53
2017-01-19T13:05:02.598Z,10.43
2017-01-19T13:06:02.574Z,10.28
2017-01-19T13:07:02.568Z,10.13
2017-01-19T13:08:02.137Z,10.15
2017-01-19T13:09:02.942Z,10.08
2017-01-19T13:10:02.902Z,10.07
2017-01-19T13:11:02.505Z,10.15
2017-01-19T13:12:02.468Z,10.21
2017-01-19T13:13:02.860Z,10.11
2017-01-19T13:14:02.424Z,10.01
2017-01-19T13:15:02.820Z,10.13